createdAt,value
2023-02-03T00:00:49.164Z,100727.00
2023-02-03T00:03:49.134Z,100725.22
2023-02-03T00:06:49.206Z,100711.00
2023-02-03T00:09:49.152Z,100708.72
2023-02-03T00:12:49.200Z,100683.41
2023-02-03T00:15:49.129Z,100715.06
2023-02-03T00:18:49.195Z,100722.81
2023-02-03T00:21:49.180Z,100742.84
2023-02-03T00:24:49.172Z,100754.06
2023-02-03T00:27:49.220Z,100753.38
2023-02-03T00:30:49.142Z,100761.66
2023-02-03T00:33:49.177Z,100750.03
2023-02-03T00:36:50.147Z,100749.47
2023-02-03T00:39:50.200Z,100763.69
2023-02-03T00:42:50.140Z,100755.87
2023-02-03T00:45:50.211Z,100740.16
2023-02-03T00:48:50.145Z,100773.66
2023-02-03T00:51:50.155Z,100748.28
2023-02-03T00:54:50.154Z,100762.00
2023-02-03T00:57:50.207Z,100772.47
2023-02-03T01:00:50.219Z,100767.22
2023-02-03T01:03:52.167Z,100775.09
2023-02-03T01:06:54.193Z,100789.09
2023-02-03T01:09:54.167Z,100791.09
2023-02-03T01:12:54.156Z,100768.84
2023-02-03T01:16:01.172Z,100788.88
2023-02-03T01:19:01.181Z,100813.66
2023-02-03T01:22:01.161Z,100809.81
2023-02-03T01:25:01.179Z,100800.06
2023-02-03T01:28:01.277Z,100806.87
2023-02-03T01:31:01.293Z,100806.87
2023-02-03T01:34:01.146Z,100797.97
2023-02-03T01:37:01.187Z,100804.06
2023-02-03T01:40:01.189Z,100795.41
2023-02-03T01:43:01.190Z,100814.47
2023-02-03T01:46:01.244Z,100815.59
2023-02-03T01:49:01.136Z,100797.19
2023-02-03T01:52:01.155Z,100803.28
2023-02-03T01:55:02.144Z,100805.31
2023-02-03T01:58:15.189Z,100811.91
2023-02-03T02:01:15.191Z,100781.22
2023-02-03T02:04:17.184Z,100801.09
2023-02-03T02:07:17.159Z,100801.53
2023-02-03T02:10:18.184Z,100821.31
2023-02-03T02:13:18.164Z,100823.84
2023-02-03T02:16:21.225Z,100812.12
2023-02-03T02:19:30.172Z,100811.75
2023-02-03T02:22:47.160Z,100810.63
2023-02-03T02:25:56.190Z,100811.19
2023-02-03T02:29:11.156Z,100821.47
2023-02-03T02:32:20.182Z,100817.94
2023-02-03T02:35:39.156Z,100811.62
2023-02-03T02:39:17.156Z,100825.97
2023-02-03T02:42:28.185Z,100830.81
2023-02-03T02:45:44.138Z,100835.97
2023-02-03T02:48:50.161Z,100843.72
2023-02-03T02:51:52.169Z,100848.84
2023-02-03T02:54:55.184Z,100854.56
2023-02-03T02:57:56.176Z,100853.81
2023-02-03T03:00:57.203Z,100852.50
2023-02-03T03:03:57.173Z,100862.75
2023-02-03T03:07:02.157Z,100861.53
2023-02-03T03:10:11.174Z,100860.25
2023-02-03T03:13:17.141Z,100865.13
2023-02-03T03:16:19.247Z,100866.09
2023-02-03T03:19:29.131Z,100849.31
2023-02-03T03:22:30.157Z,100874.91
2023-02-03T03:25:32.161Z,100866.28
2023-02-03T03:28:39.189Z,100856.72
2023-02-03T03:31:39.240Z,100867.28
2023-02-03T03:34:39.176Z,100880.00
2023-02-03T03:37:52.131Z,100892.19
2023-02-03T03:40:55.143Z,100883.69
2023-02-03T03:43:57.181Z,100866.31
2023-02-03T03:47:02.191Z,100877.87
2023-02-03T03:50:03.167Z,100864.34
2023-02-03T03:53:03.145Z,100868.50
2023-02-03T03:56:05.173Z,100878.34
2023-02-03T03:59:06.157Z,100876.12
2023-02-03T04:02:06.192Z,100863.13
2023-02-03T04:05:07.163Z,100886.88
2023-02-03T04:08:07.176Z,100872.00
2023-02-03T04:11:07.163Z,100867.31
2023-02-03T04:14:07.150Z,100889.50
2023-02-03T04:17:07.147Z,100894.81
2023-02-03T04:20:07.144Z,100895.88
2023-02-03T04:23:07.188Z,100875.66
2023-02-03T04:26:07.131Z,100892.56
2023-02-03T04:29:07.191Z,100895.13
2023-02-03T04:32:07.213Z,100880.75
2023-02-03T04:35:07.168Z,100892.00
2023-02-03T04:38:07.115Z,100863.28
2023-02-03T04:41:07.132Z,100844.53
2023-02-03T04:44:07.161Z,100877.47
2023-02-03T04:47:07.128Z,100852.16
2023-02-03T04:50:07.121Z,100876.66
2023-02-03T04:53:08.166Z,100854.72
2023-02-03T04:56:08.113Z,100877.69
2023-02-03T04:59:08.158Z,100880.28
2023-02-03T05:02:08.154Z,100896.62
2023-02-03T05:05:08.181Z,100889.19
2023-02-03T05:08:08.153Z,100920.69
2023-02-03T05:11:08.170Z,100917.25
2023-02-03T05:14:08.182Z,100924.87
2023-02-03T05:17:08.119Z,100923.25
2023-02-03T05:20:08.172Z,100921.56
2023-02-03T05:23:08.145Z,100927.44
2023-02-03T05:26:08.135Z,100915.72
2023-02-03T05:29:08.115Z,100931.09
2023-02-03T05:32:08.237Z,100921.72
2023-02-03T05:35:08.125Z,100924.47
2023-02-03T05:38:08.172Z,100903.25
2023-02-03T05:41:26.131Z,100922.63
2023-02-03T05:44:26.196Z,100908.31
2023-02-03T05:47:26.164Z,100892.97
2023-02-03T05:50:26.384Z,100928.81
2023-02-03T05:53:33.124Z,100911.87
2023-02-03T05:56:33.110Z,100939.88
2023-02-03T05:59:33.111Z,100943.28
2023-02-03T06:02:33.109Z,100945.87
2023-02-03T06:05:33.131Z,100940.75
2023-02-03T06:08:35.107Z,100930.50
2023-02-03T06:11:35.121Z,100948.38
2023-02-03T06:14:35.111Z,100951.84
2023-02-03T06:17:35.118Z,100957.84
2023-02-03T06:20:35.148Z,100962.97
2023-02-03T06:23:35.181Z,100944.34
2023-02-03T06:26:35.109Z,100958.84
2023-02-03T06:29:35.185Z,100971.84
2023-02-03T06:32:35.148Z,100954.78
2023-02-03T06:35:35.150Z,100952.34
2023-02-03T06:38:35.147Z,100963.38
2023-02-03T06:41:37.143Z,100960.59
2023-02-03T06:44:37.168Z,100958.75
2023-02-03T06:47:40.171Z,100951.59
2023-02-03T06:50:40.181Z,100964.06
2023-02-03T06:53:41.126Z,100973.84
2023-02-03T06:56:41.143Z,100957.34
2023-02-03T06:59:41.193Z,100980.25
2023-02-03T07:02:41.234Z,100987.88
2023-02-03T07:05:44.152Z,100960.72
2023-02-03T07:08:44.139Z,100985.47
2023-02-03T07:11:44.138Z,100981.06
2023-02-03T07:14:46.151Z,100979.97
2023-02-03T07:17:46.143Z,100966.06
2023-02-03T07:20:46.125Z,100975.87
2023-02-03T07:23:46.157Z,100950.81
2023-02-03T07:26:46.867Z,100944.22
2023-02-03T07:29:47.202Z,100931.66
2023-02-03T07:32:47.555Z,100950.38
2023-02-03T07:35:47.152Z,100947.06
2023-02-03T07:38:47.123Z,100927.66
2023-02-03T07:41:52.580Z,100950.66
2023-02-03T07:44:54.156Z,100938.87
2023-02-03T07:47:56.137Z,100935.59
2023-02-03T07:50:57.214Z,100925.72
2023-02-03T07:53:57.199Z,100929.38
2023-02-03T07:56:57.124Z,100922.91
2023-02-03T07:59:57.175Z,100899.97
2023-02-03T08:03:05.138Z,100888.53
2023-02-03T08:06:05.097Z,100928.56
2023-02-03T08:09:05.130Z,100925.78
2023-02-03T08:12:05.149Z,100906.28
2023-02-03T08:15:05.167Z,100916.81
2023-02-03T08:18:06.109Z,100894.34
2023-02-03T08:21:06.119Z,100909.16
2023-02-03T08:24:06.119Z,100918.59
2023-02-03T08:27:07.142Z,100912.66
2023-02-03T08:30:07.116Z,100931.06
2023-02-03T08:33:07.165Z,100924.97
2023-02-03T08:36:08.152Z,100927.31
2023-02-03T08:39:08.109Z,100926.31
2023-02-03T08:42:08.192Z,100943.44
2023-02-03T08:45:08.127Z,100942.44
2023-02-03T08:48:13.265Z,100937.44
2023-02-03T08:51:15.406Z,100961.59
2023-02-03T08:54:18.779Z,100935.31
2023-02-03T08:57:19.149Z,100940.84
2023-02-03T09:00:23.110Z,100952.88
2023-02-03T09:03:23.136Z,100963.69
2023-02-03T09:09:47.907Z,100943.09
2023-02-03T09:12:51.271Z,100974.12
2023-02-03T09:15:54.150Z,100933.97
2023-02-03T09:18:55.131Z,100958.22
2023-02-03T09:21:56.143Z,100981.91
2023-02-03T09:24:58.139Z,100970.16
2023-02-03T09:27:58.153Z,100975.03
2023-02-03T09:30:58.178Z,100941.56
2023-02-03T09:33:59.112Z,100974.47
2023-02-03T09:37:01.103Z,100961.41
2023-02-03T09:40:01.162Z,100955.31
2023-02-03T09:43:26.140Z,100922.38
2023-02-03T09:46:33.131Z,100962.47
2023-02-03T09:49:47.187Z,100890.94
2023-02-03T09:52:52.248Z,100935.63
2023-02-03T09:55:57.111Z,100925.25
2023-02-03T09:58:59.184Z,100941.50
2023-02-03T10:02:31.308Z,100866.94
2023-02-03T10:05:55.138Z,100919.34
2023-02-03T10:09:04.122Z,100848.25
2023-02-03T10:12:34.229Z,100909.41
2023-02-03T10:15:54.107Z,100896.31
2023-02-03T10:18:59.212Z,100896.12
2023-02-03T10:22:03.119Z,100849.47
2023-02-03T10:25:42.547Z,100889.81
2023-02-03T10:28:56.131Z,100893.91
2023-02-03T10:31:57.561Z,100841.66
2023-02-03T10:35:02.305Z,100755.44
2023-02-03T10:38:05.219Z,100856.44
2023-02-03T10:41:05.163Z,100868.25
2023-02-03T10:44:11.164Z,100848.41
2023-02-03T10:47:11.098Z,100839.91
2023-02-03T10:50:18.151Z,100822.44
2023-02-03T10:53:47.998Z,100817.06
2023-02-03T10:56:53.053Z,100856.75
2023-02-03T11:00:06.142Z,100836.53
2023-02-03T11:03:26.101Z,100780.97
2023-02-03T11:06:33.115Z,100834.13
2023-02-03T11:09:53.164Z,100794.91
2023-02-03T11:13:36.307Z,100783.53
2023-02-03T11:16:40.142Z,100799.69
2023-02-03T11:19:40.084Z,100788.66
2023-02-03T11:22:47.570Z,100795.38
2023-02-03T11:25:47.285Z,100789.56
2023-02-03T11:28:47.177Z,100764.66
2023-02-03T11:31:54.233Z,100713.09
2023-02-03T11:34:54.103Z,100702.97
2023-02-03T11:37:55.122Z,100692.22
2023-02-03T11:40:55.169Z,100721.19
2023-02-03T11:43:55.202Z,100728.56
2023-02-03T11:46:59.489Z,100725.66
2023-02-03T11:50:22.150Z,100709.94
2023-02-03T11:53:56.298Z,100710.00
2023-02-03T11:57:23.157Z,100709.81
2023-02-03T12:01:02.081Z,100687.63
2023-02-03T12:04:17.196Z,100573.91
2023-02-03T12:07:17.110Z,100693.34
2023-02-03T12:10:43.115Z,100642.09
2023-02-03T12:13:45.152Z,100662.75
2023-02-03T12:17:15.131Z,100665.31
2023-02-03T12:20:23.148Z,100628.88
2023-02-03T12:24:08.156Z,100651.72
2023-02-03T12:27:16.110Z,100643.50
2023-02-03T12:30:38.232Z,100660.06
2023-02-03T12:33:50.151Z,100627.13
2023-02-03T12:36:54.166Z,100594.88
2023-02-03T12:40:16.191Z,100618.94
2023-02-03T12:43:44.170Z,100634.00
2023-02-03T12:47:02.132Z,100605.34
2023-02-03T12:50:10.109Z,100623.81
2023-02-03T12:53:37.091Z,100605.56
2023-02-03T12:56:41.090Z,100554.16
2023-02-03T12:59:44.097Z,100545.75
2023-02-03T13:02:56.095Z,100559.59
2023-02-03T13:06:13.110Z,100578.22
2023-02-03T13:09:19.179Z,100579.94
2023-02-03T13:12:25.161Z,100589.13
2023-02-03T13:15:39.122Z,100561.22
2023-02-03T13:18:42.102Z,100558.34
2023-02-03T13:21:42.143Z,100548.81
2023-02-03T13:24:43.097Z,100536.72
2023-02-03T13:28:08.383Z,100537.06
2023-02-03T13:31:29.140Z,100536.41
2023-02-03T13:34:43.184Z,100535.50
2023-02-03T13:38:05.090Z,100499.38
2023-02-03T13:41:17.132Z,100521.75
2023-02-03T13:44:17.137Z,100513.56
2023-02-03T13:47:17.119Z,100503.94
2023-02-03T13:50:21.130Z,100471.06
2023-02-03T13:53:36.116Z,100487.47
2023-02-03T13:56:40.164Z,100487.66
2023-02-03T14:00:12.132Z,100483.75
2023-02-03T14:03:12.118Z,100483.31
2023-02-03T14:06:13.105Z,100461.03
2023-02-03T14:09:13.100Z,100456.03
2023-02-03T14:12:36.253Z,100456.38
2023-02-03T14:15:41.135Z,100456.81
2023-02-03T14:18:49.140Z,100453.25
2023-02-03T14:21:54.115Z,100448.91
2023-02-03T14:24:57.144Z,100439.69
2023-02-03T14:27:57.175Z,100438.25
2023-02-03T14:31:22.291Z,100429.03
2023-02-03T14:34:27.168Z,100437.34
2023-02-03T14:37:53.150Z,100401.38
2023-02-03T14:41:16.200Z,100411.56
2023-02-03T14:44:55.132Z,100403.22
2023-02-03T14:48:07.090Z,100393.31
2023-02-03T14:51:35.129Z,100384.03
2023-02-03T14:54:53.100Z,100360.38
2023-02-03T14:58:01.143Z,100362.66
2023-02-03T15:01:02.135Z,100359.91
2023-02-03T15:04:27.192Z,100360.00
2023-02-03T15:07:53.082Z,100352.63
2023-02-03T15:10:53.092Z,100349.47
2023-02-03T15:13:53.083Z,100351.34
2023-02-03T15:16:56.146Z,100334.47
2023-02-03T15:19:56.135Z,100311.75
2023-02-03T15:22:56.103Z,100319.34
2023-02-03T15:25:56.133Z,100306.84
2023-02-03T15:28:56.128Z,100302.75
2023-02-03T15:32:02.190Z,100275.72
2023-02-03T15:35:03.090Z,100262.12
2023-02-03T15:38:05.127Z,100268.06
2023-02-03T15:41:08.074Z,100258.72
2023-02-03T15:44:22.073Z,100253.69
2023-02-03T15:47:53.098Z,100245.22
2023-02-03T15:51:00.123Z,100242.78
2023-02-03T15:54:10.105Z,100239.47
2023-02-03T15:57:18.082Z,100237.72
2023-02-03T16:00:36.083Z,100232.63
2023-02-03T16:03:48.156Z,100223.13
2023-02-03T16:06:51.080Z,100200.13
2023-02-03T16:09:55.137Z,100186.47
2023-02-03T16:12:55.082Z,100192.91
2023-02-03T16:15:55.181Z,100170.94
2023-02-03T16:18:55.103Z,100188.56
2023-02-03T16:22:04.085Z,100165.63
2023-02-03T16:25:04.089Z,100162.81
2023-02-03T16:28:47.139Z,100139.78
2023-02-03T16:32:05.183Z,100141.28
2023-02-03T16:35:23.091Z,100123.19
2023-02-03T16:38:48.129Z,100091.09
2023-02-03T16:42:06.095Z,100096.75
2023-02-03T16:45:24.105Z,100099.16
2023-02-03T16:48:43.095Z,100087.19
2023-02-03T16:51:53.096Z,100079.41
2023-02-03T16:54:53.116Z,100066.53
2023-02-03T16:57:53.149Z,100039.53
2023-02-03T17:00:54.175Z,100050.25
2023-02-03T17:03:54.077Z,100051.03
2023-02-03T17:06:58.134Z,100045.84
2023-02-03T17:09:58.152Z,100039.03
2023-02-03T17:12:58.121Z,100038.06
2023-02-03T17:16:00.342Z,100032.06
2023-02-03T17:19:00.077Z,100031.28
2023-02-03T17:22:00.130Z,100019.50
2023-02-03T17:25:00.110Z,100029.50
2023-02-03T17:28:00.196Z,100030.28
2023-02-03T17:31:09.099Z,100023.28
2023-02-03T17:34:09.079Z,99999.53
2023-02-03T17:37:09.079Z,100006.03
2023-02-03T17:53:19.153Z,99958.84
2023-02-03T17:56:16.084Z,99957.84
2023-02-03T17:59:02.048Z,99950.13
2023-02-03T18:02:02.164Z,99941.53
2023-02-03T18:05:02.077Z,99935.66
2023-02-03T18:08:09.006Z,99925.34
2023-02-03T18:11:16.076Z,99925.25
2023-02-03T18:14:17.050Z,99927.59
2023-02-03T18:17:17.017Z,99930.19
2023-02-03T18:20:17.095Z,99916.63
2023-02-03T18:23:17.065Z,99916.44
2023-02-03T18:26:18.179Z,99907.88
2023-02-03T18:29:20.015Z,99885.06
2023-02-03T18:32:20.025Z,99904.31
2023-02-03T18:35:23.062Z,99902.63
2023-02-03T18:38:23.050Z,99902.50
2023-02-03T18:41:27.072Z,99894.97
2023-02-03T18:44:27.080Z,99894.00
2023-02-03T18:47:27.079Z,99895.69
2023-02-03T18:50:27.101Z,99884.16
2023-02-03T18:53:27.089Z,99911.38
2023-02-03T18:56:31.033Z,99902.72
2023-02-03T18:59:31.085Z,99884.09
2023-02-03T19:02:32.398Z,99861.34
2023-02-03T19:09:53.123Z,99867.47
2023-02-03T19:13:03.653Z,99854.72
2023-02-03T19:16:47.637Z,99827.72
2023-02-03T19:19:48.162Z,99840.91
2023-02-03T19:22:50.127Z,99800.19
2023-02-03T19:25:50.138Z,99784.84
2023-02-03T19:28:51.235Z,99790.34
2023-02-03T19:31:51.198Z,99766.22
2023-02-03T19:34:53.605Z,99742.09
2023-02-03T19:37:58.669Z,99700.31
2023-02-03T19:41:08.783Z,99733.59
2023-02-03T19:44:15.708Z,99770.28
2023-02-03T19:47:18.092Z,99789.47
2023-02-03T19:50:45.693Z,99786.78
2023-02-03T19:53:49.636Z,99790.72
2023-02-03T19:57:15.780Z,99759.09
2023-02-03T20:00:34.123Z,99795.87
2023-02-03T20:03:34.106Z,99775.75
2023-02-03T20:06:34.093Z,99787.22
2023-02-03T20:09:34.106Z,99768.66
2023-02-03T20:12:34.091Z,99785.34
2023-02-03T20:15:34.094Z,99772.47
2023-02-03T20:18:34.101Z,99771.66
2023-02-03T20:21:34.062Z,99767.22
2023-02-03T20:24:34.100Z,99741.91
2023-02-03T20:27:34.081Z,99744.34
2023-02-03T20:30:34.175Z,99743.16
2023-02-03T20:33:34.057Z,99745.25
2023-02-03T20:36:34.101Z,99743.41
2023-02-03T20:39:34.067Z,99735.84
2023-02-03T20:42:34.079Z,99737.28
2023-02-03T20:45:36.069Z,99738.03
2023-02-03T20:48:36.111Z,99721.81
2023-02-03T20:51:36.077Z,99736.06
2023-02-03T20:54:36.062Z,99739.16
2023-02-03T20:57:36.092Z,99721.56
2023-02-03T21:00:39.081Z,99735.03
2023-02-03T21:03:57.080Z,99726.59
2023-02-03T21:06:57.063Z,99746.81
2023-02-03T21:09:57.090Z,99719.50
2023-02-03T21:12:57.093Z,99723.50
2023-02-03T21:15:57.081Z,99745.59
2023-02-03T21:19:06.077Z,99737.09
2023-02-03T21:22:06.066Z,99752.31
2023-02-03T21:25:08.054Z,99734.84
2023-02-03T21:28:08.161Z,99739.63
2023-02-03T21:31:08.125Z,99742.91
2023-02-03T21:34:32.101Z,99752.00
2023-02-03T21:37:35.077Z,99741.63
2023-02-03T21:40:38.103Z,99746.72
2023-02-03T21:43:38.053Z,99740.66
2023-02-03T21:46:42.065Z,99752.84
2023-02-03T21:49:42.091Z,99758.63
2023-02-03T21:52:42.022Z,99753.59
2023-02-03T21:55:42.070Z,99755.28
2023-02-03T21:58:45.052Z,99759.44
2023-02-03T22:01:49.068Z,99757.66
2023-02-03T22:04:49.040Z,99763.53
2023-02-03T22:07:49.046Z,99750.66
2023-02-03T22:10:49.036Z,99739.81
2023-02-03T22:13:49.038Z,99749.75
2023-02-03T22:16:49.095Z,99744.72
2023-02-03T22:19:49.050Z,99738.25
2023-02-03T22:22:42.057Z,99757.53
2023-02-03T22:25:28.080Z,99758.34
2023-02-03T22:28:28.073Z,99760.06
2023-02-03T22:31:29.134Z,99754.06
2023-02-03T22:34:30.054Z,99733.69
2023-02-03T22:37:30.080Z,99745.50
2023-02-03T22:40:31.448Z,99748.91
2023-02-03T22:43:31.322Z,99753.31
2023-02-03T22:46:31.095Z,99755.03
2023-02-03T22:49:31.036Z,99750.72
2023-02-03T22:52:31.052Z,99747.47
2023-02-03T22:55:31.149Z,99748.41
2023-02-03T22:58:31.018Z,99737.56
2023-02-03T23:01:31.045Z,99740.19
2023-02-03T23:04:31.031Z,99751.16
2023-02-03T23:07:31.083Z,99749.37
2023-02-03T23:10:38.028Z,99763.78
2023-02-03T23:13:39.049Z,99768.81
2023-02-03T23:16:39.045Z,99779.91
2023-02-03T23:19:39.106Z,99783.22
2023-02-03T23:22:39.030Z,99783.06
2023-02-03T23:25:39.091Z,99775.53
2023-02-03T23:28:39.042Z,99766.06
2023-02-03T23:31:39.121Z,99750.37
2023-02-03T23:34:58.079Z,99773.22
2023-02-03T23:37:58.093Z,99785.38
2023-02-03T23:40:58.068Z,99778.56
2023-02-03T23:43:58.051Z,99764.00
2023-02-03T23:46:58.082Z,99761.47
2023-02-03T23:49:58.069Z,99765.84
2023-02-03T23:52:59.061Z,99773.66
2023-02-03T23:55:59.010Z,99780.34
2023-02-03T23:58:59.079Z,99753.16
